sensor_id;sensor_type;location;lat;lon;timestamp;pressure;altitude;pressure_sealevel;temperature;humidity
16525;BME280;8375;33.594;-117.718;2023-04-30T00:02:18;100144.34;;;23.36;52.23
16525;BME280;8375;33.594;-117.718;2023-04-30T00:04:48;100143.31;;;23.30;52.75
16525;BME280;8375;33.594;-117.718;2023-04-30T00:07:17;100140.69;;;23.23;52.28
16525;BME280;8375;33.594;-117.718;2023-04-30T00:09:45;100143.31;;;23.30;53.09
16525;BME280;8375;33.594;-117.718;2023-04-30T00:12:15;100143.50;;;23.22;52.37
16525;BME280;8375;33.594;-117.718;2023-04-30T00:14:43;100136.16;;;23.17;52.67
16525;BME280;8375;33.594;-117.718;2023-04-30T00:17:12;100146.75;;;23.10;52.73
16525;BME280;8375;33.594;-117.718;2023-04-30T00:19:41;100146.72;;;22.90;53.54
16525;BME280;8375;33.594;-117.718;2023-04-30T00:22:11;100150.00;;;22.92;53.16
16525;BME280;8375;33.594;-117.718;2023-04-30T00:24:40;100154.44;;;22.78;53.57
16525;BME280;8375;33.594;-117.718;2023-04-30T00:27:09;100153.19;;;22.74;54.29
16525;BME280;8375;33.594;-117.718;2023-04-30T00:29:37;100150.31;;;22.62;54.14
16525;BME280;8375;33.594;-117.718;2023-04-30T00:32:06;100158.97;;;22.42;53.89
16525;BME280;8375;33.594;-117.718;2023-04-30T00:34:35;100156.59;;;22.12;54.51
16525;BME280;8375;33.594;-117.718;2023-04-30T00:37:03;100156.09;;;21.95;55.48
16525;BME280;8375;33.594;-117.718;2023-04-30T00:39:34;100160.72;;;21.87;55.69
16525;BME280;8375;33.594;-117.718;2023-04-30T00:42:02;100166.09;;;21.72;55.79
16525;BME280;8375;33.594;-117.718;2023-04-30T00:44:31;100161.03;;;21.48;56.92
16525;BME280;8375;33.594;-117.718;2023-04-30T00:47:00;100164.81;;;21.39;57.55
16525;BME280;8375;33.594;-117.718;2023-04-30T00:49:28;100160.03;;;21.28;57.35
16525;BME280;8375;33.594;-117.718;2023-04-30T00:51:57;100168.06;;;21.19;57.50
16525;BME280;8375;33.594;-117.718;2023-04-30T00:54:26;100167.25;;;20.97;57.86
16525;BME280;8375;33.594;-117.718;2023-04-30T00:56:57;100166.75;;;20.72;58.66
16525;BME280;8375;33.594;-117.718;2023-04-30T00:59:26;100173.75;;;20.64;59.19
16525;BME280;8375;33.594;-117.718;2023-04-30T01:01:56;100174.53;;;20.43;60.00
16525;BME280;8375;33.594;-117.718;2023-04-30T01:04:25;100173.25;;;20.24;60.89
16525;BME280;8375;33.594;-117.718;2023-04-30T01:06:54;100173.19;;;20.17;60.89
16525;BME280;8375;33.594;-117.718;2023-04-30T01:09:23;100175.97;;;20.16;60.98
16525;BME280;8375;33.594;-117.718;2023-04-30T01:12:04;100183.88;;;20.16;61.67
16525;BME280;8375;33.594;-117.718;2023-04-30T01:14:42;100187.81;;;20.05;61.52
16525;BME280;8375;33.594;-117.718;2023-04-30T01:17:19;100188.06;;;19.95;62.19
16525;BME280;8375;33.594;-117.718;2023-04-30T01:19:49;100192.53;;;19.95;62.19
16525;BME280;8375;33.594;-117.718;2023-04-30T01:22:35;100192.56;;;19.86;62.60
16525;BME280;8375;33.594;-117.718;2023-04-30T01:25:20;100185.97;;;19.67;63.63
16525;BME280;8375;33.594;-117.718;2023-04-30T01:28:02;100185.25;;;19.58;63.09
16525;BME280;8375;33.594;-117.718;2023-04-30T01:30:32;100187.25;;;19.56;63.69
16525;BME280;8375;33.594;-117.718;2023-04-30T01:33:02;100189.31;;;19.61;64.18
16525;BME280;8375;33.594;-117.718;2023-04-30T01:35:54;100200.81;;;19.45;63.93
16525;BME280;8375;33.594;-117.718;2023-04-30T01:38:35;100200.63;;;19.46;64.57
16525;BME280;8375;33.594;-117.718;2023-04-30T01:41:12;100200.59;;;19.31;64.35
16525;BME280;8375;33.594;-117.718;2023-04-30T01:43:52;100207.47;;;19.09;65.82
16525;BME280;8375;33.594;-117.718;2023-04-30T01:46:25;100205.88;;;18.91;66.58
16525;BME280;8375;33.594;-117.718;2023-04-30T01:49:02;100213.84;;;18.75;67.75
16525;BME280;8375;33.594;-117.718;2023-04-30T01:51:40;100207.31;;;18.71;67.72
16525;BME280;8375;33.594;-117.718;2023-04-30T01:54:14;100212.25;;;18.66;68.57
16525;BME280;8375;33.594;-117.718;2023-04-30T01:56:52;100205.44;;;18.48;68.43
16525;BME280;8375;33.594;-117.718;2023-04-30T01:59:26;100209.41;;;18.36;69.35
16525;BME280;8375;33.594;-117.718;2023-04-30T02:01:55;100207.28;;;18.31;70.15
16525;BME280;8375;33.594;-117.718;2023-04-30T02:04:24;100205.50;;;18.23;70.15
16525;BME280;8375;33.594;-117.718;2023-04-30T02:06:52;100206.63;;;18.21;71.37
16525;BME280;8375;33.594;-117.718;2023-04-30T02:09:21;100204.22;;;18.11;70.89
16525;BME280;8375;33.594;-117.718;2023-04-30T02:11:50;100213.88;;;18.10;71.51
16525;BME280;8375;33.594;-117.718;2023-04-30T02:14:19;100214.72;;;18.02;71.16
16525;BME280;8375;33.594;-117.718;2023-04-30T02:16:49;100213.41;;;17.98;71.63
16525;BME280;8375;33.594;-117.718;2023-04-30T02:19:18;100214.72;;;17.94;71.05
16525;BME280;8375;33.594;-117.718;2023-04-30T02:21:46;100209.63;;;17.93;72.33
16525;BME280;8375;33.594;-117.718;2023-04-30T02:24:15;100213.88;;;17.94;72.93
16525;BME280;8375;33.594;-117.718;2023-04-30T02:26:44;100211.28;;;17.77;72.50
16525;BME280;8375;33.594;-117.718;2023-04-30T02:29:12;100211.69;;;16.98;75.57
16525;BME280;8375;33.594;-117.718;2023-04-30T02:31:41;100205.41;;;16.91;77.13
16525;BME280;8375;33.594;-117.718;2023-04-30T02:34:11;100210.28;;;16.77;77.96
16525;BME280;8375;33.594;-117.718;2023-04-30T02:36:40;100220.31;;;16.47;80.23
16525;BME280;8375;33.594;-117.718;2023-04-30T02:39:08;100217.03;;;16.45;80.99
16525;BME280;8375;33.594;-117.718;2023-04-30T02:41:37;100215.59;;;16.24;82.22
16525;BME280;8375;33.594;-117.718;2023-04-30T02:44:06;100218.31;;;16.15;82.12
16525;BME280;8375;33.594;-117.718;2023-04-30T02:46:34;100222.56;;;16.16;83.29
16525;BME280;8375;33.594;-117.718;2023-04-30T02:49:03;100222.09;;;15.94;83.71
16525;BME280;8375;33.594;-117.718;2023-04-30T02:51:33;100227.25;;;15.86;84.51
16525;BME280;8375;33.594;-117.718;2023-04-30T02:54:02;100224.75;;;15.84;85.04
16525;BME280;8375;33.594;-117.718;2023-04-30T02:56:31;100228.75;;;15.88;86.60
16525;BME280;8375;33.594;-117.718;2023-04-30T02:59:00;100225.03;;;15.91;85.29
16525;BME280;8375;33.594;-117.718;2023-04-30T03:01:28;100227.09;;;16.05;86.05
16525;BME280;8375;33.594;-117.718;2023-04-30T03:03:57;100225.06;;;16.17;85.43
16525;BME280;8375;33.594;-117.718;2023-04-30T03:06:26;100226.13;;;16.33;84.62
16525;BME280;8375;33.594;-117.718;2023-04-30T03:08:56;100233.41;;;16.47;84.12
16525;BME280;8375;33.594;-117.718;2023-04-30T03:11:25;100238.78;;;16.46;83.22
16525;BME280;8375;33.594;-117.718;2023-04-30T03:13:53;100239.53;;;16.30;83.74
16525;BME280;8375;33.594;-117.718;2023-04-30T03:16:22;100238.50;;;16.22;83.75
16525;BME280;8375;33.594;-117.718;2023-04-30T03:18:51;100240.16;;;16.23;84.25
16525;BME280;8375;33.594;-117.718;2023-04-30T03:21:19;100247.69;;;16.26;85.19
16525;BME280;8375;33.594;-117.718;2023-04-30T03:23:48;100237.31;;;16.43;83.81
16525;BME280;8375;33.594;-117.718;2023-04-30T03:26:19;100242.78;;;16.58;83.61
16525;BME280;8375;33.594;-117.718;2023-04-30T03:28:48;100250.19;;;16.63;83.32
16525;BME280;8375;33.594;-117.718;2023-04-30T03:31:16;100244.63;;;16.66;82.84
16525;BME280;8375;33.594;-117.718;2023-04-30T03:33:45;100250.38;;;16.69;82.33
16525;BME280;8375;33.594;-117.718;2023-04-30T03:36:13;100253.50;;;16.73;82.74
16525;BME280;8375;33.594;-117.718;2023-04-30T03:38:42;100255.16;;;16.74;82.85
16525;BME280;8375;33.594;-117.718;2023-04-30T03:41:11;100258.09;;;16.71;82.33
16525;BME280;8375;33.594;-117.718;2023-04-30T03:43:41;100251.66;;;16.65;82.15
16525;BME280;8375;33.594;-117.718;2023-04-30T03:46:10;100256.75;;;16.67;82.61
16525;BME280;8375;33.594;-117.718;2023-04-30T03:48:38;100253.81;;;16.70;82.71
16525;BME280;8375;33.594;-117.718;2023-04-30T03:51:07;100258.72;;;16.65;82.52
16525;BME280;8375;33.594;-117.718;2023-04-30T03:53:36;100257.88;;;16.64;82.36
16525;BME280;8375;33.594;-117.718;2023-04-30T03:56:06;100264.75;;;16.65;82.81
16525;BME280;8375;33.594;-117.718;2023-04-30T03:58:35;100260.69;;;16.63;82.17
16525;BME280;8375;33.594;-117.718;2023-04-30T04:01:05;100268.00;;;16.59;82.52
16525;BME280;8375;33.594;-117.718;2023-04-30T04:03:34;100267.19;;;16.59;83.00
16525;BME280;8375;33.594;-117.718;2023-04-30T04:06:03;100268.63;;;16.53;82.98
16525;BME280;8375;33.594;-117.718;2023-04-30T04:08:31;100271.59;;;16.58;83.50
16525;BME280;8375;33.594;-117.718;2023-04-30T04:11:00;100270.31;;;16.62;83.16
16525;BME280;8375;33.594;-117.718;2023-04-30T04:13:29;100271.91;;;16.55;82.72
16525;BME280;8375;33.594;-117.718;2023-04-30T04:15:57;100280.63;;;16.55;83.29
16525;BME280;8375;33.594;-117.718;2023-04-30T04:18:28;100278.56;;;16.41;83.63
16525;BME280;8375;33.594;-117.718;2023-04-30T04:20:56;100286.06;;;16.36;83.60
16525;BME280;8375;33.594;-117.718;2023-04-30T04:23:26;100283.41;;;16.27;83.87
16525;BME280;8375;33.594;-117.718;2023-04-30T04:25:55;100285.91;;;16.11;84.24
16525;BME280;8375;33.594;-117.718;2023-04-30T04:28:24;100287.31;;;15.87;85.74
16525;BME280;8375;33.594;-117.718;2023-04-30T04:30:53;100289.38;;;15.83;86.48
16525;BME280;8375;33.594;-117.718;2023-04-30T04:33:21;100293.41;;;15.78;87.11
16525;BME280;8375;33.594;-117.718;2023-04-30T04:35:52;100294.19;;;15.70;87.96
16525;BME280;8375;33.594;-117.718;2023-04-30T04:38:21;100287.59;;;15.66;88.04
16525;BME280;8375;33.594;-117.718;2023-04-30T04:40:53;100289.25;;;15.67;88.46
16525;BME280;8375;33.594;-117.718;2023-04-30T04:43:22;100295.28;;;15.67;88.74
16525;BME280;8375;33.594;-117.718;2023-04-30T04:45:51;100293.03;;;15.73;88.04
16525;BME280;8375;33.594;-117.718;2023-04-30T04:48:19;100291.69;;;15.68;88.55
16525;BME280;8375;33.594;-117.718;2023-04-30T04:50:48;100299.53;;;15.68;88.55
16525;BME280;8375;33.594;-117.718;2023-04-30T04:53:18;100299.63;;;15.59;88.45
16525;BME280;8375;33.594;-117.718;2023-04-30T04:55:47;100294.69;;;15.55;88.95
16525;BME280;8375;33.594;-117.718;2023-04-30T04:58:16;100298.56;;;15.51;89.33
16525;BME280;8375;33.594;-117.718;2023-04-30T05:00:44;100297.34;;;15.46;89.63
16525;BME280;8375;33.594;-117.718;2023-04-30T05:03:13;100302.50;;;15.37;90.33
16525;BME280;8375;33.594;-117.718;2023-04-30T05:05:42;100302.13;;;15.32;91.15
16525;BME280;8375;33.594;-117.718;2023-04-30T05:08:11;100300.06;;;15.36;91.39
16525;BME280;8375;33.594;-117.718;2023-04-30T05:10:42;100301.03;;;15.35;91.12
16525;BME280;8375;33.594;-117.718;2023-04-30T05:13:11;100303.75;;;15.33;91.26
16525;BME280;8375;33.594;-117.718;2023-04-30T05:15:40;100299.97;;;15.28;91.28
16525;BME280;8375;33.594;-117.718;2023-04-30T05:18:08;100307.66;;;15.29;91.75
16525;BME280;8375;33.594;-117.718;2023-04-30T05:20:37;100302.31;;;15.21;91.96
16525;BME280;8375;33.594;-117.718;2023-04-30T05:23:06;100302.88;;;14.96;93.24
16525;BME280;8375;33.594;-117.718;2023-04-30T05:25:35;100309.56;;;14.99;93.64
16525;BME280;8375;33.594;-117.718;2023-04-30T05:28:06;100298.16;;;15.00;94.00
16525;BME280;8375;33.594;-117.718;2023-04-30T05:30:35;100301.31;;;15.04;94.49
16525;BME280;8375;33.594;-117.718;2023-04-30T05:33:04;100295.94;;;15.05;93.86
16525;BME280;8375;33.594;-117.718;2023-04-30T05:35:33;100294.66;;;15.09;94.06
16525;BME280;8375;33.594;-117.718;2023-04-30T05:38:03;100292.44;;;15.15;93.72
16525;BME280;8375;33.594;-117.718;2023-04-30T05:40:32;100299.03;;;15.19;93.74
16525;BME280;8375;33.594;-117.718;2023-04-30T05:43:00;100289.25;;;15.21;93.31
16525;BME280;8375;33.594;-117.718;2023-04-30T05:45:32;100300.00;;;15.18;93.06
16525;BME280;8375;33.594;-117.718;2023-04-30T05:48:00;100292.34;;;15.06;93.45
16525;BME280;8375;33.594;-117.718;2023-04-30T05:50:29;100298.53;;;15.05;94.05
16525;BME280;8375;33.594;-117.718;2023-04-30T05:52:58;100290.88;;;14.94;94.21
16525;BME280;8375;33.594;-117.718;2023-04-30T05:55:27;100294.63;;;14.91;94.39
16525;BME280;8375;33.594;-117.718;2023-04-30T05:57:56;100285.66;;;14.94;95.40
16525;BME280;8375;33.594;-117.718;2023-04-30T06:00:25;100274.91;;;14.97;95.27
16525;BME280;8375;33.594;-117.718;2023-04-30T06:02:55;100279.06;;;15.00;95.06
16525;BME280;8375;33.594;-117.718;2023-04-30T06:05:24;100279.44;;;15.05;95.32
16525;BME280;8375;33.594;-117.718;2023-04-30T06:07:53;100265.41;;;15.06;95.19
16525;BME280;8375;33.594;-117.718;2023-04-30T06:10:21;100264.28;;;15.08;95.06
16525;BME280;8375;33.594;-117.718;2023-04-30T06:12:51;100263.59;;;15.06;95.68
16525;BME280;8375;33.594;-117.718;2023-04-30T06:15:19;100263.47;;;15.08;94.73
16525;BME280;8375;33.594;-117.718;2023-04-30T06:17:49;100269.13;;;15.03;95.21
16525;BME280;8375;33.594;-117.718;2023-04-30T06:20:19;100266.38;;;15.05;95.08
16525;BME280;8375;33.594;-117.718;2023-04-30T06:22:48;100261.13;;;15.05;95.12
16525;BME280;8375;33.594;-117.718;2023-04-30T06:25:16;100258.13;;;15.00;95.23
16525;BME280;8375;33.594;-117.718;2023-04-30T06:27:46;100268.88;;;14.96;95.35
16525;BME280;8375;33.594;-117.718;2023-04-30T06:30:14;100265.44;;;14.96;95.75
16525;BME280;8375;33.594;-117.718;2023-04-30T06:32:43;100254.00;;;14.97;95.71
16525;BME280;8375;33.594;-117.718;2023-04-30T06:35:12;100264.75;;;14.94;96.03
16525;BME280;8375;33.594;-117.718;2023-04-30T06:37:42;100262.16;;;14.94;95.83
16525;BME280;8375;33.594;-117.718;2023-04-30T06:40:11;100262.31;;;14.92;96.19
16525;BME280;8375;33.594;-117.718;2023-04-30T06:42:40;100261.47;;;14.92;96.10
16525;BME280;8375;33.594;-117.718;2023-04-30T06:45:09;100262.44;;;14.91;95.93
16525;BME280;8375;33.594;-117.718;2023-04-30T06:47:40;100264.13;;;14.82;96.55
16525;BME280;8375;33.594;-117.718;2023-04-30T06:50:11;100258.75;;;14.84;96.79
16525;BME280;8375;33.594;-117.718;2023-04-30T06:52:42;100258.47;;;14.87;96.61
16525;BME280;8375;33.594;-117.718;2023-04-30T06:55:11;100262.59;;;14.89;96.86
16525;BME280;8375;33.594;-117.718;2023-04-30T06:57:40;100263.00;;;14.85;97.01
16525;BME280;8375;33.594;-117.718;2023-04-30T07:00:11;100250.91;;;14.84;96.90
16525;BME280;8375;33.594;-117.718;2023-04-30T07:02:40;100256.28;;;14.82;96.96
16525;BME280;8375;33.594;-117.718;2023-04-30T07:05:09;100254.38;;;14.84;97.19
16525;BME280;8375;33.594;-117.718;2023-04-30T07:07:38;100255.75;;;14.78;97.29
16525;BME280;8375;33.594;-117.718;2023-04-30T07:10:09;100260.97;;;14.78;97.49
16525;BME280;8375;33.594;-117.718;2023-04-30T07:12:38;100264.56;;;14.77;98.16
16525;BME280;8375;33.594;-117.718;2023-04-30T07:15:08;100275.97;;;14.76;97.98
16525;BME280;8375;33.594;-117.718;2023-04-30T07:17:37;100280.91;;;14.79;98.42
16525;BME280;8375;33.594;-117.718;2023-04-30T07:20:08;100273.63;;;14.83;98.42
16525;BME280;8375;33.594;-117.718;2023-04-30T07:22:37;100274.97;;;14.87;97.91
16525;BME280;8375;33.594;-117.718;2023-04-30T07:25:08;100267.56;;;14.82;97.33
16525;BME280;8375;33.594;-117.718;2023-04-30T07:27:37;100264.25;;;14.80;97.03
16525;BME280;8375;33.594;-117.718;2023-04-30T07:30:07;100273.34;;;14.76;97.50
16525;BME280;8375;33.594;-117.718;2023-04-30T07:32:36;100270.75;;;14.76;97.58
16525;BME280;8375;33.594;-117.718;2023-04-30T07:35:06;100263.19;;;14.73;97.79
16525;BME280;8375;33.594;-117.718;2023-04-30T07:37:35;100251.09;;;14.72;97.79
16525;BME280;8375;33.594;-117.718;2023-04-30T07:40:05;100254.38;;;14.74;98.10
16525;BME280;8375;33.594;-117.718;2023-04-30T07:42:40;100255.09;;;14.66;98.44
16525;BME280;8375;33.594;-117.718;2023-04-30T07:45:09;100253.56;;;14.64;98.68
16525;BME280;8375;33.594;-117.718;2023-04-30T07:47:38;100257.84;;;14.65;99.60
16525;BME280;8375;33.594;-117.718;2023-04-30T07:50:07;100254.13;;;14.67;99.04
16525;BME280;8375;33.594;-117.718;2023-04-30T07:52:36;100247.81;;;14.60;99.46
16525;BME280;8375;33.594;-117.718;2023-04-30T07:55:05;100244.25;;;14.51;99.29
16525;BME280;8375;33.594;-117.718;2023-04-30T07:57:34;100240.97;;;14.49;99.47
16525;BME280;8375;33.594;-117.718;2023-04-30T08:00:05;100236.31;;;14.43;100.00
16525;BME280;8375;33.594;-117.718;2023-04-30T08:02:34;100234.53;;;14.44;100.00
16525;BME280;8375;33.594;-117.718;2023-04-30T08:05:03;100230.97;;;14.45;100.00
16525;BME280;8375;33.594;-117.718;2023-04-30T08:07:32;100232.47;;;14.47;100.00
16525;BME280;8375;33.594;-117.718;2023-04-30T08:10:00;100219.13;;;14.50;100.00
16525;BME280;8375;33.594;-117.718;2023-04-30T08:12:29;100212.63;;;14.55;100.00
16525;BME280;8375;33.594;-117.718;2023-04-30T08:15:03;100208.25;;;14.55;99.88
16525;BME280;8375;33.594;-117.718;2023-04-30T08:17:33;100200.69;;;14.52;100.00
16525;BME280;8375;33.594;-117.718;2023-04-30T08:20:03;100188.44;;;14.52;99.50
16525;BME280;8375;33.594;-117.718;2023-04-30T08:22:32;100196.97;;;14.55;99.48
16525;BME280;8375;33.594;-117.718;2023-04-30T08:25:01;100186.41;;;14.46;99.44
16525;BME280;8375;33.594;-117.718;2023-04-30T08:27:30;100183.69;;;14.48;100.00
16525;BME280;8375;33.594;-117.718;2023-04-30T08:29:59;100184.38;;;14.40;100.00
16525;BME280;8375;33.594;-117.718;2023-04-30T08:32:33;100183.31;;;14.33;100.00
16525;BME280;8375;33.594;-117.718;2023-04-30T08:35:02;100182.22;;;14.26;100.00
16525;BME280;8375;33.594;-117.718;2023-04-30T08:37:30;100182.09;;;14.27;100.00
16525;BME280;8375;33.594;-117.718;2023-04-30T08:39:59;100177.84;;;14.26;100.00
16525;BME280;8375;33.594;-117.718;2023-04-30T08:42:30;100176.03;;;14.27;100.00
16525;BME280;8375;33.594;-117.718;2023-04-30T08:45:00;100170.81;;;14.27;100.00
16525;BME280;8375;33.594;-117.718;2023-04-30T08:47:30;100163.94;;;14.26;100.00
16525;BME280;8375;33.594;-117.718;2023-04-30T08:49:59;100162.31;;;14.25;100.00
16525;BME280;8375;33.594;-117.718;2023-04-30T08:52:29;100159.03;;;14.22;100.00
16525;BME280;8375;33.594;-117.718;2023-04-30T08:55:00;100161.78;;;14.21;100.00
16525;BME280;8375;33.594;-117.718;2023-04-30T08:57:29;100161.38;;;14.16;100.00
16525;BME280;8375;33.594;-117.718;2023-04-30T08:59:59;100163.72;;;14.19;100.00
16525;BME280;8375;33.594;-117.718;2023-04-30T09:02:33;100166.84;;;14.22;100.00
16525;BME280;8375;33.594;-117.718;2023-04-30T09:05:02;100163.94;;;14.26;100.00
16525;BME280;8375;33.594;-117.718;2023-04-30T09:07:35;100165.19;;;14.21;100.00
16525;BME280;8375;33.594;-117.718;2023-04-30T09:10:14;100161.81;;;14.11;100.00
16525;BME280;8375;33.594;-117.718;2023-04-30T09:12:43;100159.06;;;14.13;100.00
16525;BME280;8375;33.594;-117.718;2023-04-30T09:15:12;100165.50;;;14.18;100.00
16525;BME280;8375;33.594;-117.718;2023-04-30T09:17:43;100165.75;;;14.25;100.00
16525;BME280;8375;33.594;-117.718;2023-04-30T09:20:12;100155.06;;;14.18;100.00
16525;BME280;8375;33.594;-117.718;2023-04-30T09:22:41;100161.53;;;14.14;100.00
16525;BME280;8375;33.594;-117.718;2023-04-30T09:25:10;100166.22;;;14.11;100.00
16525;BME280;8375;33.594;-117.718;2023-04-30T09:27:39;100162.47;;;14.13;100.00
16525;BME280;8375;33.594;-117.718;2023-04-30T09:30:09;100156.97;;;14.16;100.00
16525;BME280;8375;33.594;-117.718;2023-04-30T09:32:58;100154.25;;;14.18;100.00
16525;BME280;8375;33.594;-117.718;2023-04-30T09:35:31;100144.19;;;14.23;100.00
16525;BME280;8375;33.594;-117.718;2023-04-30T09:38:00;100147.31;;;14.27;100.00
16525;BME280;8375;33.594;-117.718;2023-04-30T09:40:35;100144.72;;;14.27;100.00
16525;BME280;8375;33.594;-117.718;2023-04-30T09:43:04;100144.31;;;14.21;100.00
16525;BME280;8375;33.594;-117.718;2023-04-30T09:45:40;100147.22;;;14.18;100.00
16525;BME280;8375;33.594;-117.718;2023-04-30T09:48:11;100144.47;;;14.20;100.00
16525;BME280;8375;33.594;-117.718;2023-04-30T09:50:42;100139.66;;;14.15;100.00
16525;BME280;8375;33.594;-117.718;2023-04-30T09:53:13;100136.25;;;14.15;100.00
16525;BME280;8375;33.594;-117.718;2023-04-30T09:55:45;100128.25;;;14.16;100.00
16525;BME280;8375;33.594;-117.718;2023-04-30T09:58:14;100133.47;;;14.16;100.00
16525;BME280;8375;33.594;-117.718;2023-04-30T10:00:45;100126.34;;;14.18;100.00
16525;BME280;8375;33.594;-117.718;2023-04-30T10:03:16;100115.75;;;14.20;100.00
16525;BME280;8375;33.594;-117.718;2023-04-30T10:05:47;100120.03;;;14.21;100.00
16525;BME280;8375;33.594;-117.718;2023-04-30T10:08:20;100116.28;;;14.23;100.00
16525;BME280;8375;33.594;-117.718;2023-04-30T10:10:52;100119.56;;;14.26;100.00
16525;BME280;8375;33.594;-117.718;2023-04-30T10:13:25;100114.34;;;14.26;100.00
16525;BME280;8375;33.594;-117.718;2023-04-30T10:15:58;100109.13;;;14.26;100.00
16525;BME280;8375;33.594;-117.718;2023-04-30T10:18:33;100101.16;;;14.27;100.00
16525;BME280;8375;33.594;-117.718;2023-04-30T10:21:03;100092.22;;;14.30;100.00
16525;BME280;8375;33.594;-117.718;2023-04-30T10:23:36;100089.66;;;14.20;100.00
16525;BME280;8375;33.594;-117.718;2023-04-30T10:26:05;100085.53;;;14.17;100.00
16525;BME280;8375;33.594;-117.718;2023-04-30T10:28:34;100083.09;;;14.16;100.00
16525;BME280;8375;33.594;-117.718;2023-04-30T10:31:04;100084.19;;;14.13;100.00
16525;BME280;8375;33.594;-117.718;2023-04-30T10:33:43;100077.50;;;14.01;100.00
16525;BME280;8375;33.594;-117.718;2023-04-30T10:36:23;100084.94;;;13.96;100.00
16525;BME280;8375;33.594;-117.718;2023-04-30T10:38:57;100086.28;;;14.00;100.00
16525;BME280;8375;33.594;-117.718;2023-04-30T10:41:26;100078.84;;;14.05;100.00
16525;BME280;8375;33.594;-117.718;2023-04-30T10:43:56;100084.75;;;14.07;100.00
16525;BME280;8375;33.594;-117.718;2023-04-30T10:46:25;100079.53;;;14.07;100.00
16525;BME280;8375;33.594;-117.718;2023-04-30T10:48:56;100079.25;;;14.10;100.00
16525;BME280;8375;33.594;-117.718;2023-04-30T10:51:44;100077.84;;;14.16;100.00
16525;BME280;8375;33.594;-117.718;2023-04-30T10:54:14;100071.00;;;14.15;100.00
16525;BME280;8375;33.594;-117.718;2023-04-30T10:56:45;100068.09;;;14.18;100.00
16525;BME280;8375;33.594;-117.718;2023-04-30T10:59:14;100066.28;;;14.18;100.00
16525;BME280;8375;33.594;-117.718;2023-04-30T11:01:57;100057.69;;;14.08;100.00
16525;BME280;8375;33.594;-117.718;2023-04-30T11:04:27;100075.97;;;14.08;100.00
16525;BME280;8375;33.594;-117.718;2023-04-30T11:07:01;100074.31;;;14.07;100.00
16525;BME280;8375;33.594;-117.718;2023-04-30T11:09:37;100071.41;;;14.10;100.00
16525;BME280;8375;33.594;-117.718;2023-04-30T11:12:12;100066.47;;;14.07;100.00
16525;BME280;8375;33.594;-117.718;2023-04-30T11:14:42;100073.22;;;14.10;100.00
16525;BME280;8375;33.594;-117.718;2023-04-30T11:17:12;100061.53;;;14.14;100.00
16525;BME280;8375;33.594;-117.718;2023-04-30T11:19:51;100063.28;;;14.13;100.00
16525;BME280;8375;33.594;-117.718;2023-04-30T11:22:22;100063.47;;;14.12;100.00
16525;BME280;8375;33.594;-117.718;2023-04-30T11:25:01;100061.13;;;14.08;100.00
16525;BME280;8375;33.594;-117.718;2023-04-30T11:27:31;100065.50;;;14.08;100.00
16525;BME280;8375;33.594;-117.718;2023-04-30T11:30:09;100065.13;;;14.03;100.00
16525;BME280;8375;33.594;-117.718;2023-04-30T11:32:38;100060.19;;;14.00;100.00
16525;BME280;8375;33.594;-117.718;2023-04-30T11:35:09;100057.19;;;13.94;100.00
16525;BME280;8375;33.594;-117.718;2023-04-30T11:37:39;100062.97;;;13.88;100.00
16525;BME280;8375;33.594;-117.718;2023-04-30T11:40:10;100061.50;;;13.86;100.00
16525;BME280;8375;33.594;-117.718;2023-04-30T11:42:40;100061.34;;;13.87;100.00
16525;BME280;8375;33.594;-117.718;2023-04-30T11:45:10;100055.16;;;13.88;100.00
16525;BME280;8375;33.594;-117.718;2023-04-30T11:47:43;100055.22;;;13.78;100.00
16525;BME280;8375;33.594;-117.718;2023-04-30T11:50:15;100063.03;;;13.69;100.00
16525;BME280;8375;33.594;-117.718;2023-04-30T11:52:49;100052.09;;;13.65;100.00
16525;BME280;8375;33.594;-117.718;2023-04-30T11:55:19;100049.31;;;13.67;100.00
16525;BME280;8375;33.594;-117.718;2023-04-30T11:57:49;100051.53;;;13.71;100.00
16525;BME280;8375;33.594;-117.718;2023-04-30T12:00:19;100047.50;;;13.77;100.00
16525;BME280;8375;33.594;-117.718;2023-04-30T12:02:49;100048.88;;;13.81;100.00
16525;BME280;8375;33.594;-117.718;2023-04-30T12:05:20;100046.13;;;13.83;100.00
16525;BME280;8375;33.594;-117.718;2023-04-30T12:07:50;100048.56;;;13.84;100.00
16525;BME280;8375;33.594;-117.718;2023-04-30T12:10:19;100045.16;;;13.84;100.00
16525;BME280;8375;33.594;-117.718;2023-04-30T12:12:49;100038.97;;;13.85;100.00
16525;BME280;8375;33.594;-117.718;2023-04-30T12:15:19;100037.84;;;13.87;100.00
16525;BME280;8375;33.594;-117.718;2023-04-30T12:17:52;100040.34;;;13.89;100.00
16525;BME280;8375;33.594;-117.718;2023-04-30T12:20:25;100046.53;;;13.88;100.00
16525;BME280;8375;33.594;-117.718;2023-04-30T12:22:54;100042.78;;;13.90;100.00
16525;BME280;8375;33.594;-117.718;2023-04-30T12:25:23;100037.84;;;13.87;100.00
16525;BME280;8375;33.594;-117.718;2023-04-30T12:27:58;100036.09;;;13.88;100.00
16525;BME280;8375;33.594;-117.718;2023-04-30T12:30:27;100032.34;;;13.90;100.00
16525;BME280;8375;33.594;-117.718;2023-04-30T12:32:57;100026.31;;;13.90;100.00
16525;BME280;8375;33.594;-117.718;2023-04-30T12:35:29;100021.63;;;13.93;100.00
16525;BME280;8375;33.594;-117.718;2023-04-30T12:38:07;100016.13;;;13.97;100.00
16525;BME280;8375;33.594;-117.718;2023-04-30T12:40:37;100015.44;;;13.94;100.00
16525;BME280;8375;33.594;-117.718;2023-04-30T12:43:07;100015.44;;;13.94;100.00